CUF weather

Cuneo International Airport
Cuneo, Piedmont, Italy

Public forecast

Using degrees Celsius for public forecast. Weather courtesy of forecast.io.

Current aviation weather report (METAR) for Cuneo International Airport

Retrieved 2019/11/15 08:50 UTC (15 minutes ago):

LIMZ 150850Z 25004KT 9999 BKN060 00/00 Q1001 R21/790291

Aviation forecast (TAF) for Cuneo International Airport

Retrieved 2019/11/15 06:21 UTC (3 hours ago):

TAF LIMZ 150500Z 1506/1606 VRB05KT 9999 SCT025 BKN060 BECMG 1520/1522 4000 RA BKN012 BKN040 TEMPO 1522/1604 SHRA